Wendy C — WYB6131 — position and weather

sailwx.info

Track history (hours):
 
Tides and Currents Weather Stations Pressure Air Temp Water Temp Dewpoint Dewpoint Depression Visibility Wind Speed Wind Dir Waves Ship Positions

Wendy C

Owner: Harbor Towing & Fleeting, Inc., Metairie, LA. More information available from US FCC via Universal Licensing System and Coast Guard Vessel Documentation Center.

Last reported at 2015-Jul-27 21:13 UTC. Time now 2015-Aug-03 17:14 UTC.
Position N 29°56' W 090°00'.

Length 19 m; draft 3 m.

Type: Towing. MMSI: 366160126.

Date/timePositionNaut miles runAvg speedWind from/ knotsBaromVisibWave heightAir tempDewpointWater temp
2015-Jul-27 21:13N 29°56' W 090°00'0 0.0
2015-Jul-27 20:31N 29°56' W 090°00'0 0.0
2015-Jul-27 17:28N 29°56' W 090°00'0 0.0
2015-Jul-27 16:33N 29°56' W 090°00'0 0.0
2015-Jul-27 15:32N 29°56' W 090°00'0 0.0
2015-Jul-27 14:27N 29°56' W 090°00'0 0.0
2015-Jul-27 13:22N 29°56' W 090°00'0 0.0
2015-Jul-27 12:15N 29°56' W 090°00'0 0.0
2015-Jul-27 11:32N 29°56' W 090°00'0 0.0
2015-Jul-27 10:33N 29°56' W 090°00'0 0.0
2015-Jul-27 09:26N 29°56' W 090°00'0 0.0
2015-Jul-27 08:32N 29°56' W 090°00'0 0.0
2015-Jul-27 07:22N 29°56' W 090°00'0 0.0
2015-Jul-27 06:17N 29°56' W 090°00'0 0.0
2015-Jul-25 21:28N 29°56' W 090°00'0 0.0
2015-Jul-25 20:26N 29°56' W 090°00'0 0.0
2015-Jul-25 19:23N 29°56' W 090°00'0 0.0
2015-Jul-25 18:32N 29°56' W 090°00'0 0.0
2015-Jul-24 14:33N 29°56' W 090°00'0 0.0
2015-Jul-24 13:24N 29°56' W 090°00'0 0.0
2015-Jul-24 12:32N 29°56' W 090°00'0 0.0
2015-Jul-24 10:28N 29°56' W 090°00'0 0.0
2015-Jul-24 09:33N 29°56' W 090°00'0 0.0
2015-Jul-24 08:31N 29°56' W 090°00'0 0.0
2015-Jul-24 07:33N 29°56' W 090°00'0 0.0
2015-Jul-24 06:29N 29°56' W 090°00'0 0.0
2015-Jul-24 05:32N 29°56' W 090°00'0 0.0
2015-Jul-24 04:30N 29°56' W 090°00'2 2.1
2015-Jul-24 03:34N 29°58' W 090°02'3 2.5
2015-Jul-24 02:33N 29°60' W 089°60'3 2.4
2015-Jul-24 01:27N 29°58' W 090°02'0 0.2
2015-Jul-24 00:33N 29°58' W 090°02'2 2.1
2015-Jul-23 23:33N 29°60' W 090°00'0 0.0
2015-Jul-23 22:33N 29°60' W 090°00'0 0.0
2015-Jul-23 21:33N 29°60' W 090°00'0 0.1
2015-Jul-23 20:27N 29°60' W 090°01'2 2.2
2015-Jul-23 19:26N 29°58' W 090°02'1 0.0
2015-Jul-22 23:25N 29°59' W 090°01'1 1.0
2015-Jul-22 22:11N 29°60' W 090°01'1 1.7
2015-Jul-22 21:22N 29°60' W 089°59'0 0.0
2015-Jul-22 20:28N 29°60' W 089°59'2 1.1
2015-Jul-22 18:32N 30°00' W 089°57'5 4.0
2015-Jul-22 17:19N 29°58' W 090°02'1 0.9
2015-Jul-22 16:32N 29°57' W 090°01'1 1.1
2015-Jul-22 15:31N 29°56' W 090°00'0 0.1
2015-Jul-22 14:30N 29°56' W 090°00'0 0.3
2015-Jul-22 13:33N 29°56' W 090°00'0 0.1
2015-Jul-22 09:31N 29°56' W 089°60'3 2.8
2015-Jul-22 08:33N 29°58' W 090°02'0 0.3
2015-Jul-22 07:33N 29°58' W 090°01'1 0.4
2015-Jul-22 06:20N 29°58' W 090°02'0 0.2
2015-Jul-22 05:33N 29°58' W 090°02'4 0.2
2015-Jul-21 11:13N 30°00' W 089°58'4 5.1
2015-Jul-21 10:30N 29°58' W 090°02'1 1.2
2015-Jul-21 09:28N 29°57' W 090°01'1 1.2
2015-Jul-21 08:29N 29°56' W 090°00'0 0.0
2015-Jul-21 06:15N 29°56' W 090°00'0 0.2
2015-Jul-21 05:31N 29°56' W 090°00'3 0.3
2015-Jul-20 20:18N 29°55' W 089°58'3 2.7
2015-Jul-20 19:22N 29°56' W 090°00'0 0.0
2015-Jul-20 16:25N 29°56' W 090°00'0 0.0
2015-Jul-20 15:28N 29°56' W 090°00'1 0.1
2015-Jul-19 14:27N 29°57' W 090°01'1 1.3
2015-Jul-19 13:17N 29°56' W 090°00'2 2.5
2015-Jul-19 12:28N 29°58' W 090°02'1 0.6
2015-Jul-19 11:23N 29°58' W 090°01'0 0.0
2015-Jul-19 10:24N 29°58' W 090°01'0 0.0
2015-Jul-19 09:32N 29°58' W 090°01'2 2.1
2015-Jul-19 08:29N 29°60' W 089°59'5 5.2
2015-Jul-19 07:28N 30°01' W 089°53'0 0.0
2015-Jul-19 05:27N 30°01' W 089°53'3 3.6
2015-Jul-19 04:32N 30°00' W 089°57'5 1.2
2015-Jul-19 00:32N 29°57' W 090°01'0 0.0
2015-Jul-18 23:33N 29°57' W 090°01'1 0.4
2015-Jul-18 22:18N 29°57' W 090°01'1 1.6
2015-Jul-18 21:26N 29°58' W 090°02'7 2.8
2015-Jul-18 19:05N 30°01' W 089°55'6 0.3
2015-Jul-18 00:28N 29°57' W 090°01'2 0.8
2015-Jul-17 22:22N 29°58' W 090°02'0 0.0
2015-Jul-17 21:19N 29°58' W 090°02'  
Track history (hours):
 
Tides and Currents Weather Stations Pressure Air Temp Water Temp Dewpoint Dewpoint Depression Visibility Wind Speed Wind Dir Waves Ship Positions

Wendy C

Owner: Harbor Towing & Fleeting, Inc., Metairie, LA. More information available from US FCC via Universal Licensing System and Coast Guard Vessel Documentation Center.

Last reported at 2015-Jul-27 21:13 UTC. Time now 2015-Aug-03 17:14 UTC.
Position N 29°56' W 090°00'.

Length 19 m; draft 3 m.

Type: Towing. MMSI: 366160126.

Date/timePositionNaut miles runAvg speedWind from/ knotsBaromVisibWave heightAir tempDewpointWater temp
2015-Jul-27 21:13N 29°56' W 090°00'0 0.0
2015-Jul-27 20:31N 29°56' W 090°00'0 0.0
2015-Jul-27 17:28N 29°56' W 090°00'0 0.0
2015-Jul-27 16:33N 29°56' W 090°00'0 0.0
2015-Jul-27 15:32N 29°56' W 090°00'0 0.0
2015-Jul-27 14:27N 29°56' W 090°00'0 0.0
2015-Jul-27 13:22N 29°56' W 090°00'0 0.0
2015-Jul-27 12:15N 29°56' W 090°00'0 0.0
2015-Jul-27 11:32N 29°56' W 090°00'0 0.0
2015-Jul-27 10:33N 29°56' W 090°00'0 0.0
2015-Jul-27 09:26N 29°56' W 090°00'0 0.0
2015-Jul-27 08:32N 29°56' W 090°00'0 0.0
2015-Jul-27 07:22N 29°56' W 090°00'0 0.0
2015-Jul-27 06:17N 29°56' W 090°00'0 0.0
2015-Jul-25 21:28N 29°56' W 090°00'0 0.0
2015-Jul-25 20:26N 29°56' W 090°00'0 0.0
2015-Jul-25 19:23N 29°56' W 090°00'0 0.0
2015-Jul-25 18:32N 29°56' W 090°00'0 0.0
2015-Jul-24 14:33N 29°56' W 090°00'0 0.0
2015-Jul-24 13:24N 29°56' W 090°00'0 0.0
2015-Jul-24 12:32N 29°56' W 090°00'0 0.0
2015-Jul-24 10:28N 29°56' W 090°00'0 0.0
2015-Jul-24 09:33N 29°56' W 090°00'0 0.0
2015-Jul-24 08:31N 29°56' W 090°00'0 0.0
2015-Jul-24 07:33N 29°56' W 090°00'0 0.0
2015-Jul-24 06:29N 29°56' W 090°00'0 0.0
2015-Jul-24 05:32N 29°56' W 090°00'0 0.0
2015-Jul-24 04:30N 29°56' W 090°00'2 2.1
2015-Jul-24 03:34N 29°58' W 090°02'3 2.5
2015-Jul-24 02:33N 29°60' W 089°60'3 2.4
2015-Jul-24 01:27N 29°58' W 090°02'0 0.2
2015-Jul-24 00:33N 29°58' W 090°02'2 2.1
2015-Jul-23 23:33N 29°60' W 090°00'0 0.0
2015-Jul-23 22:33N 29°60' W 090°00'0 0.0
2015-Jul-23 21:33N 29°60' W 090°00'0 0.1
2015-Jul-23 20:27N 29°60' W 090°01'2 2.2
2015-Jul-23 19:26N 29°58' W 090°02'1 0.0
2015-Jul-22 23:25N 29°59' W 090°01'1 1.0
2015-Jul-22 22:11N 29°60' W 090°01'1 1.7
2015-Jul-22 21:22N 29°60' W 089°59'0 0.0
2015-Jul-22 20:28N 29°60' W 089°59'2 1.1
2015-Jul-22 18:32N 30°00' W 089°57'5 4.0
2015-Jul-22 17:19N 29°58' W 090°02'1 0.9
2015-Jul-22 16:32N 29°57' W 090°01'1 1.1
2015-Jul-22 15:31N 29°56' W 090°00'0 0.1
2015-Jul-22 14:30N 29°56' W 090°00'0 0.3
2015-Jul-22 13:33N 29°56' W 090°00'0 0.1
2015-Jul-22 09:31N 29°56' W 089°60'3 2.8
2015-Jul-22 08:33N 29°58' W 090°02'0 0.3
2015-Jul-22 07:33N 29°58' W 090°01'1 0.4
2015-Jul-22 06:20N 29°58' W 090°02'0 0.2
2015-Jul-22 05:33N 29°58' W 090°02'4 0.2
2015-Jul-21 11:13N 30°00' W 089°58'4 5.1
2015-Jul-21 10:30N 29°58' W 090°02'1 1.2
2015-Jul-21 09:28N 29°57' W 090°01'1 1.2
2015-Jul-21 08:29N 29°56' W 090°00'0 0.0
2015-Jul-21 06:15N 29°56' W 090°00'0 0.2
2015-Jul-21 05:31N 29°56' W 090°00'3 0.3
2015-Jul-20 20:18N 29°55' W 089°58'3 2.7
2015-Jul-20 19:22N 29°56' W 090°00'0 0.0
2015-Jul-20 16:25N 29°56' W 090°00'0 0.0
2015-Jul-20 15:28N 29°56' W 090°00'1 0.1
2015-Jul-19 14:27N 29°57' W 090°01'1 1.3
2015-Jul-19 13:17N 29°56' W 090°00'2 2.5
2015-Jul-19 12:28N 29°58' W 090°02'1 0.6
2015-Jul-19 11:23N 29°58' W 090°01'0 0.0
2015-Jul-19 10:24N 29°58' W 090°01'0 0.0
2015-Jul-19 09:32N 29°58' W 090°01'2 2.1
2015-Jul-19 08:29N 29°60' W 089°59'5 5.2
2015-Jul-19 07:28N 30°01' W 089°53'0 0.0
2015-Jul-19 05:27N 30°01' W 089°53'3 3.6
2015-Jul-19 04:32N 30°00' W 089°57'5 1.2
2015-Jul-19 00:32N 29°57' W 090°01'0 0.0
2015-Jul-18 23:33N 29°57' W 090°01'1 0.4
2015-Jul-18 22:18N 29°57' W 090°01'1 1.6
2015-Jul-18 21:26N 29°58' W 090°02'7 2.8
2015-Jul-18 19:05N 30°01' W 089°55'6 0.3
2015-Jul-18 00:28N 29°57' W 090°01'2 0.8
2015-Jul-17 22:22N 29°58' W 090°02'0 0.0
2015-Jul-17 21:19N 29°58' W 090°02'  

Dump ship's entire track history